Terminal Aerodrome Forecast
Issued by NWS Blacksburg, VA

Home | Current Version | Previous Version | Text Only | Print | Product List | Glossary On
Versions: 1 2 3 4 5 6 7 8 9 10 11 12 13 14 15 16 17 18 19 20 21 22 23 24 25 26 27 28 29 30 31 32 33 34
000
FTUS41 KRNK 241722
TAFLYH
TAF
KLYH 241722Z 2418/2518 18008KT P6SM FEW040
     FM250000 VRB03KT P6SM SCT080
     FM251200 19005KT P6SM BKN040
     FM251400 20008KT P6SM BKN040
     FM251700 20010KT 4SM -SHRA BKN035=

USA.gov is the U.S. government's official web portal to all federal, state and local government web resources and services.